Time;durP1;ratioP1;P1;durP2;ratioP2;P2;SDS_P1;SDS_P2;PMS_P1;PMS_P2;Temp;Humidity;BMP_temperature;BMP_pressure;BME280_temperature;BME280_humidity;BME280_pressure;Samples;Min_cycle;Max_cycle;Signal;HPM_P1;HPM_P2
2022/02/18 00:02:12;;;;;;;2.38;0.40;;;;;;;4.67;100.00;100541.91;6297176;28;20047;-78
2022/02/18 00:05:14;;;;;;;2.88;0.95;;;;;;;4.63;100.00;100553.31;6297938;28;20388;-78
2022/02/18 00:08:15;;;;;;;2.40;0.40;;;;;;;4.68;100.00;100557.50;6302634;28;20056;-78
2022/02/18 00:11:17;;;;;;;4.22;0.70;;;;;;;4.70;100.00;100560.88;6301878;28;20052;-79
2022/02/18 00:14:20;;;;;;;8.38;1.05;;;;;;;4.80;100.00;100558.81;6300583;28;20048;-79
2022/02/18 00:17:21;;;;;;;1.77;0.52;;;;;;;4.78;100.00;100569.31;6301395;28;20048;-79
2022/02/18 00:20:22;;;;;;;1.48;0.47;;;;;;;4.84;100.00;100557.84;6299122;28;20055;-78
2022/02/18 00:23:24;;;;;;;1.90;0.50;;;;;;;4.79;100.00;100559.75;6294266;28;20049;-78
2022/02/18 00:26:25;;;;;;;3.55;0.52;;;;;;;4.83;100.00;100563.94;6301821;28;20051;-78
2022/02/18 00:29:28;;;;;;;1.27;0.65;;;;;;;4.84;100.00;100571.69;6299658;28;20059;-79
2022/02/18 00:32:29;;;;;;;1.73;0.50;;;;;;;4.82;100.00;100564.84;6291411;28;20048;-79
2022/02/18 00:35:31;;;;;;;1.25;0.30;;;;;;;4.84;100.00;100560.44;6280909;28;20052;-79
2022/02/18 00:38:32;;;;;;;1.13;0.52;;;;;;;4.82;100.00;100557.91;6280595;28;20044;-78
2022/02/18 00:41:34;;;;;;;1.52;0.30;;;;;;;4.75;100.00;100563.34;6280080;28;20040;-78
2022/02/18 00:44:36;;;;;;;3.53;0.90;;;;;;;4.80;100.00;100567.50;6277798;28;20044;-79
2022/02/18 00:47:38;;;;;;;1.92;0.30;;;;;;;4.78;100.00;100561.50;6289694;28;20049;-78
2022/02/18 00:50:39;;;;;;;2.22;0.77;;;;;;;4.78;100.00;100558.03;6295874;28;20101;-79
2022/02/18 00:53:41;;;;;;;12.35;0.75;;;;;;;4.81;100.00;100556.19;6287309;28;20041;-79
2022/02/18 00:56:42;;;;;;;6.15;0.70;;;;;;;4.79;100.00;100560.59;6287591;28;20143;-80
2022/02/18 00:59:45;;;;;;;2.30;0.90;;;;;;;4.76;100.00;100565.03;6300247;28;20484;-79
2022/02/18 01:02:47;;;;;;;5.28;1.75;;;;;;;4.73;100.00;100557.34;6299820;28;20044;-79
2022/02/18 01:05:49;;;;;;;0.57;0.50;;;;;;;4.68;100.00;100559.22;6291072;28;20056;-79
2022/02/18 01:08:51;;;;;;;3.03;0.60;;;;;;;4.70;100.00;100560.88;6300060;28;20674;-79
2022/02/18 01:11:52;;;;;;;2.75;0.55;;;;;;;4.76;100.00;100578.06;6299416;28;20072;-80
2022/02/18 01:14:55;;;;;;;4.57;0.88;;;;;;;4.64;100.00;100575.84;6299838;28;20416;-79
2022/02/18 01:17:57;;;;;;;1.48;0.52;;;;;;;4.59;100.00;100563.00;6299471;28;20048;-79
2022/02/18 01:20:58;;;;;;;0.55;0.30;;;;;;;4.54;100.00;100567.47;6299876;28;20059;-79
2022/02/18 01:24:03;;;;;;;0.60;0.50;;;;;;;4.47;100.00;100556.41;6299527;28;20052;-79
2022/02/18 01:27:04;;;;;;;1.75;0.60;;;;;;;4.46;100.00;100570.31;6299444;28;20200;-79
2022/02/18 01:30:09;;;;;;;1.73;0.57;;;;;;;4.46;100.00;100556.47;6299539;28;20049;-79
2022/02/18 01:33:10;;;;;;;8.35;1.17;;;;;;;4.46;100.00;100572.06;6297487;28;20507;-79
2022/02/18 01:36:12;;;;;;;4.57;1.00;;;;;;;4.45;100.00;100566.03;6290598;28;20067;-79
2022/02/18 01:39:13;;;;;;;1.90;1.02;;;;;;;4.51;100.00;100572.78;6299420;28;20123;-80
2022/02/18 01:42:14;;;;;;;0.52;0.52;;;;;;;4.45;100.00;100575.56;6298811;28;20052;-79
2022/02/18 01:45:17;;;;;;;9.48;0.98;;;;;;;4.44;100.00;100571.25;6298774;28;20064;-79
2022/02/18 01:48:19;;;;;;;6.22;0.85;;;;;;;4.48;100.00;100567.66;6299359;28;20048;-79
2022/02/18 01:51:23;;;;;;;3.05;0.75;;;;;;;4.43;100.00;100572.16;6298757;28;20057;-78
2022/02/18 01:54:24;;;;;;;6.20;0.70;;;;;;;4.41;100.00;100579.19;6298654;28;20083;-79
2022/02/18 01:57:26;;;;;;;5.20;1.25;;;;;;;4.42;100.00;100578.28;6298895;28;20483;-79
2022/02/18 02:00:31;;;;;;;6.22;1.42;;;;;;;4.43;100.00;100562.59;6293515;28;20049;-78
2022/02/18 02:03:32;;;;;;;2.42;1.13;;;;;;;4.50;100.00;100555.47;6294852;28;20040;-79
2022/02/18 02:06:34;;;;;;;5.57;0.85;;;;;;;4.44;100.00;100548.69;6282658;28;20056;-78
2022/02/18 02:09:36;;;;;;;0.70;0.60;;;;;;;4.47;100.00;100550.34;6293144;28;20060;-79
2022/02/18 02:12:39;;;;;;;8.15;1.17;;;;;;;4.45;100.00;100549.53;6297854;28;20048;-77
2022/02/18 02:15:41;;;;;;;4.40;0.85;;;;;;;4.43;100.00;100554.78;6292961;28;20135;-78
2022/02/18 02:18:44;;;;;;;2.60;0.80;;;;;;;4.46;100.00;100556.47;6298243;28;20045;-78
2022/02/18 02:21:51;;;;;;;2.55;0.93;;;;;;;4.45;100.00;100553.03;6297950;28;20551;-78
2022/02/18 02:24:54;;;;;;;3.33;0.77;;;;;;;4.41;100.00;100543.59;6298154;28;20048;-79
2022/02/18 02:27:55;;;;;;;3.03;0.90;;;;;;;4.39;100.00;100529.78;6298265;28;20056;-78
2022/02/18 02:30:58;;;;;;;5.45;1.08;;;;;;;4.38;100.00;100535.03;6297003;28;20049;-77
2022/02/18 02:33:59;;;;;;;5.00;0.70;;;;;;;4.32;100.00;100526.53;6298145;28;20518;-77
2022/02/18 02:37:01;;;;;;;2.90;1.05;;;;;;;4.31;100.00;100521.34;6297973;28;20055;-78
2022/02/18 02:40:04;;;;;;;1.90;1.02;;;;;;;4.30;100.00;100517.06;6297586;28;20539;-77
2022/02/18 02:43:06;;;;;;;3.30;0.73;;;;;;;4.29;100.00;100516.22;6282183;28;20040;-77
2022/02/18 02:46:07;;;;;;;1.52;0.82;;;;;;;4.26;100.00;100518.88;6274466;28;20048;-77
2022/02/18 02:49:09;;;;;;;6.10;1.08;;;;;;;4.22;100.00;100513.84;6295150;28;20071;-78
2022/02/18 02:52:10;;;;;;;2.80;1.10;;;;;;;4.22;100.00;100514.69;6296970;28;20049;-77
2022/02/18 02:55:13;;;;;;;3.22;0.95;;;;;;;4.20;100.00;100508.69;6291031;28;20049;-77
2022/02/18 02:58:15;;;;;;;5.85;1.27;;;;;;;4.19;100.00;100507.00;6291950;28;20053;-77
2022/02/18 03:01:16;;;;;;;2.50;1.10;;;;;;;4.15;100.00;100509.75;6275369;28;20049;-77
2022/02/18 03:04:19;;;;;;;4.60;1.20;;;;;;;4.11;100.00;100508.97;6274760;28;20052;-77
2022/02/18 03:07:20;;;;;;;0.73;0.63;;;;;;;4.10;100.00;100517.69;6274020;28;20056;-77
2022/02/18 03:10:23;;;;;;;1.75;0.90;;;;;;;4.10;100.00;100522.03;6275660;28;20063;-78
2022/02/18 03:13:24;;;;;;;1.67;1.00;;;;;;;4.08;100.00;100528.09;6296923;28;20044;-77
2022/02/18 03:16:26;;;;;;;2.55;0.80;;;;;;;4.10;100.00;100524.63;6291690;28;20053;-77
2022/02/18 03:19:27;;;;;;;0.80;0.73;;;;;;;4.10;100.00;100516.84;6295513;28;20049;-77
2022/02/18 03:22:29;;;;;;;4.93;1.05;;;;;;;4.13;100.00;100517.56;6296685;28;20048;-78
2022/02/18 03:25:31;;;;;;;9.43;1.10;;;;;;;4.07;100.00;100516.00;6296921;28;20052;-77
2022/02/18 03:28:33;;;;;;;6.00;2.17;;;;;;;4.11;100.00;100497.72;6296717;28;20044;-77
2022/02/18 03:31:35;;;;;;;7.68;1.30;;;;;;;4.05;100.00;100502.22;6278553;28;20045;-77
2022/02/18 03:34:36;;;;;;;4.70;0.85;;;;;;;4.04;100.00;100495.31;6274076;28;20045;-77
2022/02/18 03:37:37;;;;;;;1.80;0.63;;;;;;;4.04;100.00;100495.31;6274464;28;20052;-78
2022/02/18 03:40:41;;;;;;;1.83;0.60;;;;;;;4.08;100.00;100496.06;6274853;28;20071;-78
2022/02/18 03:43:42;;;;;;;4.00;0.88;;;;;;;4.06;100.00;100497.88;6279110;28;20052;-78
2022/02/18 03:46:44;;;;;;;2.60;0.95;;;;;;;4.04;100.00;100497.03;6278185;28;20048;-77
2022/02/18 03:49:45;;;;;;;2.50;0.90;;;;;;;4.05;100.00;100503.97;6279560;28;20052;-78
2022/02/18 03:52:51;;;;;;;2.67;0.70;;;;;;;4.09;100.00;100505.59;6282314;28;20047;-78
2022/02/18 03:55:55;;;;;;;8.57;2.72;;;;;;;4.08;100.00;100503.84;6297015;28;20040;-78
2022/02/18 03:58:56;;;;;;;5.38;0.95;;;;;;;4.07;100.00;100508.22;6301686;28;20232;-77
2022/02/18 04:01:57;;;;;;;2.13;0.98;;;;;;;4.07;100.00;100510.81;6292493;28;20451;-77
2022/02/18 04:04:59;;;;;;;2.25;1.02;;;;;;;4.10;100.00;100501.22;6301810;28;20052;-78
2022/02/18 04:08:00;;;;;;;2.30;0.90;;;;;;;4.08;100.00;100502.09;6301884;28;20131;-77
2022/02/18 04:11:03;;;;;;;6.05;1.88;;;;;;;4.10;100.00;100496.88;6298410;28;20061;-77
2022/02/18 04:14:04;;;;;;;5.78;0.75;;;;;;;4.11;100.00;100503.78;6291647;28;20041;-78
2022/02/18 04:17:06;;;;;;;1.30;0.90;;;;;;;4.11;100.00;100500.31;6281917;28;20044;-78
2022/02/18 04:20:08;;;;;;;1.33;0.57;;;;;;;4.11;100.00;100506.38;6279371;28;20055;-77
2022/02/18 04:23:11;;;;;;;9.30;1.33;;;;;;;4.08;100.00;100496.06;6279088;28;20493;-77
2022/02/18 04:26:13;;;;;;;6.28;0.90;;;;;;;4.06;100.00;100501.31;6289301;28;20055;-78
2022/02/18 04:29:15;;;;;;;6.32;0.70;;;;;;;4.05;100.00;100504.81;6293052;28;20047;-78
2022/02/18 04:32:16;;;;;;;5.13;0.73;;;;;;;4.06;100.00;100508.28;6288477;28;20071;-77
2022/02/18 04:35:18;;;;;;;2.70;0.88;;;;;;;4.06;100.00;100496.13;6290221;28;20052;-77
2022/02/18 04:38:20;;;;;;;5.15;0.68;;;;;;;4.00;100.00;100495.47;6290004;28;20045;-78
2022/02/18 04:41:23;;;;;;;2.13;1.45;;;;;;;4.01;100.00;100476.34;6287839;28;20048;-78
2022/02/18 04:44:24;;;;;;;2.13;1.08;;;;;;;4.02;100.00;100476.31;6291943;28;20047;-78
2022/02/18 04:47:25;;;;;;;7.50;1.13;;;;;;;4.03;100.00;100471.94;6289203;28;20132;-78
2022/02/18 04:50:27;;;;;;;4.63;0.98;;;;;;;4.08;100.00;100464.84;6289915;28;20053;-78
2022/02/18 04:53:28;;;;;;;9.63;1.20;;;;;;;4.05;100.00;100467.56;6292274;28;20048;-77
2022/02/18 04:56:31;;;;;;;3.63;1.60;;;;;;;4.09;100.00;100461.38;6296697;28;20049;-77
2022/02/18 04:59:33;;;;;;;3.25;1.13;;;;;;;4.07;100.00;100458.81;6300830;28;20060;-78
2022/02/18 05:02:34;;;;;;;2.42;0.95;;;;;;;4.08;100.00;100455.28;6291707;28;20044;-77
2022/02/18 05:05:35;;;;;;;1.70;0.60;;;;;;;4.11;100.00;100461.31;6297244;28;20053;-78
2022/02/18 05:08:37;;;;;;;2.85;1.13;;;;;;;4.13;100.00;100456.91;6287606;28;20524;-78
2022/02/18 05:11:39;;;;;;;4.57;0.85;;;;;;;4.15;100.00;100461.19;6293354;28;20056;-78
2022/02/18 05:14:41;;;;;;;9.52;1.48;;;;;;;4.18;100.00;100455.00;6299138;28;20075;-78
2022/02/18 05:17:46;;;;;;;6.40;1.75;;;;;;;4.20;100.00;100438.47;6292249;28;20048;-78
2022/02/18 05:20:48;;;;;;;4.60;1.10;;;;;;;4.25;100.00;100440.94;6293039;28;20044;-77
2022/02/18 05:23:49;;;;;;;3.90;1.13;;;;;;;4.25;100.00;100439.16;6285860;28;20047;-78
2022/02/18 05:26:52;;;;;;;7.85;1.15;;;;;;;4.26;100.00;100424.41;6295010;28;20071;-78
2022/02/18 05:29:53;;;;;;;8.20;1.10;;;;;;;4.27;100.00;100424.38;6299416;28;20055;-78
2022/02/18 05:32:55;;;;;;;1.73;0.85;;;;;;;4.29;100.00;100406.97;6299197;28;20036;-77
2022/02/18 05:35:56;;;;;;;2.28;0.85;;;;;;;4.23;100.00;100414.97;6299133;28;20056;-78
2022/02/18 05:38:58;;;;;;;3.35;1.40;;;;;;;4.24;100.00;100419.28;6294821;28;20510;-78
2022/02/18 05:42:00;;;;;;;5.15;1.13;;;;;;;4.26;100.00;100411.41;6298300;28;20055;-78
2022/02/18 05:45:02;;;;;;;6.55;1.15;;;;;;;4.26;100.00;100401.84;6299350;28;20488;-79
2022/02/18 05:48:03;;;;;;;2.38;0.82;;;;;;;4.29;100.00;100398.31;6299021;28;20123;-78
2022/02/18 05:51:05;;;;;;;6.72;0.95;;;;;;;4.28;100.00;100389.66;6292168;28;20049;-78
2022/02/18 05:54:07;;;;;;;3.72;1.17;;;;;;;4.33;100.00;100382.56;6299352;28;20103;-78
2022/02/18 05:57:09;;;;;;;3.80;1.20;;;;;;;4.33;100.00;100372.16;6289529;28;20400;-78
2022/02/18 06:00:12;;;;;;;3.70;0.73;;;;;;;4.37;100.00;100365.09;6293346;28;20067;-78
2022/02/18 06:03:13;;;;;;;4.82;0.98;;;;;;;4.38;100.00;100353.78;6298957;28;20071;-76
2022/02/18 06:06:15;;;;;;;7.38;2.10;;;;;;;4.41;100.00;100353.69;6299346;28;20048;-78
2022/02/18 06:09:16;;;;;;;7.72;2.75;;;;;;;4.49;100.00;100345.59;6297818;28;20048;-77
2022/02/18 06:12:19;;;;;;;4.85;1.80;;;;;;;4.47;100.00;100331.81;6297611;28;20045;-76
2022/02/18 06:15:21;;;;;;;2.10;1.05;;;;;;;4.51;100.00;100326.44;6292459;28;20051;-77
2022/02/18 06:18:22;;;;;;;2.15;1.20;;;;;;;4.52;100.00;100328.13;6298418;28;20045;-78
2022/02/18 06:21:24;;;;;;;3.42;1.08;;;;;;;4.57;100.00;100322.75;6296962;28;20067;-76
2022/02/18 06:24:25;;;;;;;4.63;1.48;;;;;;;4.72;100.00;100310.94;6297226;28;20048;-76
2022/02/18 06:27:28;;;;;;;9.45;1.80;;;;;;;4.74;100.00;100316.97;6297788;28;20059;-76
2022/02/18 06:30:29;;;;;;;2.42;1.35;;;;;;;4.77;100.00;100306.44;6296388;28;20049;-76
2022/02/18 06:33:31;;;;;;;7.18;2.00;;;;;;;4.77;100.00;100309.06;6296995;28;20460;-76
2022/02/18 06:36:32;;;;;;;2.92;1.38;;;;;;;4.88;100.00;100319.91;6297322;28;20064;-76
2022/02/18 06:39:35;;;;;;;5.18;2.08;;;;;;;4.83;100.00;100308.81;6296933;28;20052;-75
2022/02/18 06:42:38;;;;;;;2.55;1.33;;;;;;;4.80;100.00;100303.72;6296619;28;20080;-76
2022/02/18 06:45:39;;;;;;;7.72;2.15;;;;;;;4.84;100.00;100295.75;6296705;28;20063;-76
2022/02/18 06:48:41;;;;;;;11.95;1.75;;;;;;;4.74;100.00;100278.78;6296980;28;20510;-76
2022/02/18 06:51:42;;;;;;;8.98;2.47;;;;;;;4.70;100.00;100284.16;6296224;28;20044;-76
2022/02/18 06:54:43;;;;;;;4.60;1.77;;;;;;;4.74;100.00;100286.56;6296754;28;20044;-76
2022/02/18 06:57:47;;;;;;;4.60;2.17;;;;;;;4.69;100.00;100282.44;6290909;28;20044;-76
2022/02/18 07:00:51;;;;;;;3.50;2.00;;;;;;;4.67;100.00;100279.03;6287288;28;20065;-76
2022/02/18 07:03:52;;;;;;;6.00;2.35;;;;;;;4.67;100.00;100272.06;6275961;28;20052;-77
2022/02/18 07:06:54;;;;;;;5.45;2.75;;;;;;;4.71;100.00;100263.25;6279876;28;20049;-76
2022/02/18 07:09:55;;;;;;;7.20;2.58;;;;;;;4.75;100.00;100254.44;6287738;28;20071;-76
2022/02/18 07:12:59;;;;;;;6.78;2.17;;;;;;;4.77;100.00;100252.63;6289465;28;20048;-75
2022/02/18 07:16:00;;;;;;;8.40;3.13;;;;;;;4.77;100.00;100236.16;6285223;28;20076;-76
2022/02/18 07:19:02;;;;;;;4.63;2.38;;;;;;;4.74;100.00;100223.25;6282113;28;20044;-76
2022/02/18 07:22:04;;;;;;;7.35;3.00;;;;;;;4.74;100.00;100207.66;6280362;28;20048;-75
2022/02/18 07:25:06;;;;;;;5.57;2.30;;;;;;;4.71;100.00;100182.56;6286337;28;20056;-76
2022/02/18 07:28:09;;;;;;;9.23;2.60;;;;;;;4.70;100.00;100151.41;6288419;28;20053;-76
2022/02/18 07:31:10;;;;;;;5.55;3.03;;;;;;;4.68;100.00;100128.06;6282657;28;20055;-76
2022/02/18 07:34:12;;;;;;;8.07;3.88;;;;;;;4.73;100.00;100130.47;6283049;28;20043;-76
2022/02/18 07:37:13;;;;;;;8.18;3.10;;;;;;;4.70;100.00;100131.44;6283918;28;20049;-76
2022/02/18 07:40:14;;;;;;;12.15;2.85;;;;;;;4.66;100.00;100111.63;6284355;28;20044;-78
2022/02/18 07:43:17;;;;;;;7.85;2.95;;;;;;;4.69;100.00;100100.28;6292118;28;20075;-76
2022/02/18 07:46:19;;;;;;;5.68;2.45;;;;;;;4.68;100.00;100083.81;6296177;28;20048;-76
2022/02/18 07:49:20;;;;;;;5.45;2.25;;;;;;;4.68;100.00;100076.00;6296438;28;20048;-76
2022/02/18 07:52:22;;;;;;;6.32;2.30;;;;;;;4.70;100.00;100074.16;6295749;28;20491;-76
2022/02/18 07:55:24;;;;;;;4.05;2.00;;;;;;;4.73;100.00;100049.78;6296243;28;20067;-76
2022/02/18 07:58:26;;;;;;;9.38;3.00;;;;;;;4.77;100.00;100046.16;6290203;28;20063;-77
2022/02/18 08:01:28;;;;;;;3.92;2.28;;;;;;;4.74;100.00;100038.47;6290895;28;20060;-77
2022/02/18 08:04:29;;;;;;;5.70;2.58;;;;;;;4.76;100.00;100026.22;6275717;28;20049;-77
2022/02/18 08:07:31;;;;;;;7.30;2.88;;;;;;;4.78;100.00;100059.09;6285128;28;20068;-76
2022/02/18 08:10:32;;;;;;;11.25;3.50;;;;;;;4.83;100.00;100030.28;6288610;28;20049;-77
2022/02/18 08:13:35;;;;;;;5.97;2.33;;;;;;;4.86;100.00;100009.34;6296158;28;20222;-77
2022/02/18 08:16:37;;;;;;;8.70;2.65;;;;;;;4.81;100.00;99978.28;6291135;28;20060;-77
2022/02/18 08:19:38;;;;;;;8.75;2.47;;;;;;;4.83;100.00;100005.09;6289998;28;20132;-77
2022/02/18 08:22:39;;;;;;;4.13;2.28;;;;;;;4.83;100.00;99994.69;6295162;28;20527;-77
2022/02/18 08:25:41;;;;;;;9.55;2.17;;;;;;;4.85;100.00;99989.41;6289523;28;20076;-76
2022/02/18 08:28:44;;;;;;;13.85;3.08;;;;;;;4.91;100.00;99980.50;6298890;28;20060;-77
2022/02/18 08:31:45;;;;;;;9.05;2.47;;;;;;;4.93;100.00;99976.06;6299557;28;20045;-77
2022/02/18 08:34:46;;;;;;;7.88;3.05;;;;;;;5.00;100.00;99970.53;6277291;28;20045;-77
2022/02/18 08:37:48;;;;;;;5.75;3.10;;;;;;;5.03;100.00;99965.19;6285337;28;20040;-77
2022/02/18 08:40:49;;;;;;;7.68;3.22;;;;;;;5.11;100.00;99953.59;6299380;28;20052;-77
2022/02/18 08:43:54;;;;;;;13.10;3.65;;;;;;;5.13;100.00;99944.78;6299757;28;20040;-77
2022/02/18 08:46:55;;;;;;;5.57;3.00;;;;;;;5.18;100.00;99924.63;6299711;28;20415;-77
2022/02/18 08:49:57;;;;;;;4.60;2.47;;;;;;;5.21;100.00;99919.25;6299396;28;20057;-78
2022/02/18 08:52:58;;;;;;;7.15;2.83;;;;;;;5.32;100.00;99917.03;6298681;28;20045;-78
2022/02/18 08:56:00;;;;;;;6.07;2.28;;;;;;;5.38;100.00;99905.50;6296424;28;20551;-77
2022/02/18 08:59:05;;;;;;;10.40;3.20;;;;;;;5.40;100.00;99888.00;6296514;28;20040;-76
2022/02/18 09:02:06;;;;;;;7.53;2.67;;;;;;;5.52;100.00;99877.03;6298817;28;20060;-76
2022/02/18 09:05:09;;;;;;;6.43;2.70;;;;;;;5.58;100.00;99865.47;6299234;28;20608;-77
2022/02/18 09:08:11;;;;;;;4.80;1.80;;;;;;;5.64;100.00;99853.94;6298027;28;20056;-76
2022/02/18 09:11:12;;;;;;;6.82;2.45;;;;;;;5.64;100.00;99836.53;6298362;28;20055;-76
2022/02/18 09:14:16;;;;;;;10.90;2.80;;;;;;;5.73;100.00;99814.41;6299257;28;20484;-76
2022/02/18 09:17:17;;;;;;;7.78;2.35;;;;;;;5.77;100.00;99813.34;6298901;28;20053;-76
2022/02/18 09:20:18;;;;;;;7.32;2.47;;;;;;;5.88;100.00;99815.41;6295433;28;20532;-77
2022/02/18 09:23:20;;;;;;;4.85;2.53;;;;;;;5.84;100.00;99801.66;6274106;28;20049;-76
2022/02/18 09:26:25;;;;;;;5.20;1.85;;;;;;;5.89;100.00;99791.00;6273794;28;20045;-76
2022/02/18 09:29:28;;;;;;;5.35;2.42;;;;;;;5.92;100.00;99770.88;6274123;28;20102;-76
2022/02/18 09:32:30;;;;;;;4.78;2.70;;;;;;;5.92;100.00;99757.00;6273116;28;20072;-76
2022/02/18 09:35:31;;;;;;;4.38;1.52;;;;;;;5.97;100.00;99739.38;6274026;28;20049;-77
2022/02/18 09:38:33;;;;;;;4.75;2.30;;;;;;;5.96;100.00;99738.53;6273332;28;20048;-76
2022/02/18 09:41:35;;;;;;;4.88;2.97;;;;;;;5.93;100.00;99714.34;6273146;28;20060;-77
2022/02/18 09:44:38;;;;;;;2.50;1.35;;;;;;;5.91;100.00;99706.59;6273557;28;20504;-77
2022/02/18 09:47:41;;;;;;;3.03;1.73;;;;;;;5.95;100.00;99683.81;6273604;28;20420;-76
2022/02/18 09:50:43;;;;;;;4.55;1.30;;;;;;;5.90;100.00;99665.78;6272872;28;20136;-77
2022/02/18 09:53:44;;;;;;;2.45;1.60;;;;;;;5.94;100.00;99661.28;6273828;28;20064;-77
2022/02/18 09:56:47;;;;;;;4.97;1.75;;;;;;;5.98;100.00;99653.22;6273624;28;20045;-77
2022/02/18 09:59:51;;;;;;;2.25;1.52;;;;;;;6.07;100.00;99641.47;6273012;28;20080;-76
2022/02/18 10:02:53;;;;;;;6.63;1.20;;;;;;;6.08;100.00;99627.50;6273061;28;20049;-77
2022/02/18 10:05:55;;;;;;;5.70;1.52;;;;;;;6.01;100.00;99613.13;6273450;28;20056;-77
2022/02/18 10:08:58;;;;;;;3.40;1.00;;;;;;;5.96;100.00;99597.72;6273562;28;20063;-77
2022/02/18 10:11:59;;;;;;;1.02;0.80;;;;;;;5.95;100.00;99592.56;6272566;28;20049;-78
2022/02/18 10:15:09;;;;;;;2.78;0.93;;;;;;;5.97;100.00;99578.53;6273500;28;20449;-77
2022/02/18 10:18:11;;;;;;;7.63;1.67;;;;;;;5.96;100.00;99568.19;6272886;28;20051;-77
2022/02/18 10:21:14;;;;;;;4.15;1.15;;;;;;;5.91;100.00;99559.75;6272777;28;20045;-77
2022/02/18 10:24:17;;;;;;;2.85;1.20;;;;;;;5.90;100.00;99547.59;6272815;28;20515;-76
2022/02/18 10:27:19;;;;;;;4.03;1.42;;;;;;;5.92;100.00;99533.59;6273317;28;20052;-77
2022/02/18 10:30:25;;;;;;;1.42;0.70;;;;;;;5.91;100.00;99541.50;6271903;28;20056;-76
2022/02/18 10:33:27;;;;;;;1.73;0.70;;;;;;;5.82;100.00;99533.22;6272914;28;20049;-76
2022/02/18 10:36:36;;;;;;;3.42;1.00;;;;;;;5.89;100.00;99518.09;6272506;28;20052;-77
2022/02/18 10:39:38;;;;;;;1.15;0.60;;;;;;;5.78;100.00;99512.63;6272742;28;20045;-77
2022/02/18 10:42:40;;;;;;;1.40;0.85;;;;;;;5.75;100.00;99492.75;6272013;28;20087;-77
2022/02/18 10:45:59;;;;;;;3.42;1.15;;;;;;;5.73;100.00;99484.19;6272945;28;20052;-77
2022/02/18 10:49:00;;;;;;;2.33;1.23;;;;;;;5.68;100.00;99481.00;6272542;28;20055;-77
2022/02/18 10:52:03;;;;;;;2.25;0.80;;;;;;;5.62;100.00;99465.66;6270877;28;20291;-77
2022/02/18 10:55:07;;;;;;;3.20;0.70;;;;;;;5.72;100.00;99456.47;6272450;28;20249;-77
2022/02/18 10:58:09;;;;;;;1.05;0.82;;;;;;;5.81;100.00;99427.28;6272645;28;20053;-77
2022/02/18 11:01:13;;;;;;;4.60;0.68;;;;;;;5.88;100.00;99425.16;6271608;28;20060;-76
2022/02/18 11:04:14;;;;;;;2.97;1.08;;;;;;;5.98;100.00;99402.88;6272262;28;20053;-77
2022/02/18 11:07:17;;;;;;;2.47;0.47;;;;;;;5.96;100.00;99411.75;6271332;28;20057;-77
2022/02/18 11:10:32;;;;;;;3.83;1.40;;;;;;;5.91;100.00;99403.31;6269289;28;20425;-76
2022/02/18 11:13:34;;;;;;;0.93;0.47;;;;;;;6.07;100.00;99393.72;6270055;28;20052;-76
2022/02/18 11:16:39;;;;;;;1.52;0.60;;;;;;;6.06;100.00;99361.59;6270059;28;20056;-77
2022/02/18 11:19:43;;;;;;;5.05;0.63;;;;;;;6.20;100.00;99341.69;6269805;28;20049;-77
2022/02/18 11:22:45;;;;;;;5.88;0.80;;;;;;;6.27;100.00;99329.97;6270328;28;20059;-77
2022/02/18 11:25:46;;;;;;;3.00;0.50;;;;;;;6.24;100.00;99328.38;6271582;28;20049;-77
2022/02/18 11:28:50;;;;;;;2.75;0.70;;;;;;;6.31;100.00;99306.25;6271351;28;20480;-77
2022/02/18 11:31:58;;;;;;;1.77;0.50;;;;;;;6.34;100.00;99298.22;6270877;28;20056;-77
2022/02/18 11:35:19;;;;;;;1.35;0.57;;;;;;;6.52;100.00;99285.00;6271431;28;20646;-77
2022/02/18 11:38:42;;;;;;;0.50;0.50;;;;;;;6.52;100.00;99264.97;6271310;28;20076;-77
2022/02/18 11:41:53;;;;;;;2.72;1.05;;;;;;;6.70;100.00;99249.13;6270648;28;20052;-76
2022/02/18 11:44:55;;;;;;;3.30;0.40;;;;;;;6.74;100.00;99229.72;6271219;28;20045;-76
2022/02/18 11:47:58;;;;;;;1.80;1.08;;;;;;;6.83;100.00;99209.09;6271531;28;20052;-76
2022/02/18 11:51:06;;;;;;;0.80;0.55;;;;;;;6.91;100.00;99207.78;6270701;28;20053;-76
2022/02/18 11:54:24;;;;;;;2.50;1.00;;;;;;;7.00;100.00;99195.00;6270663;28;20199;-77
2022/02/18 11:57:29;;;;;;;0.68;0.40;;;;;;;7.18;100.00;99182.53;6273141;28;20056;-77
2022/02/18 12:00:38;;;;;;;6.15;1.70;;;;;;;7.16;100.00;99189.59;6270930;28;20603;-77
2022/02/18 12:03:41;;;;;;;2.10;0.82;;;;;;;7.34;100.00;99161.44;6275864;28;20055;-77
2022/02/18 12:06:43;;;;;;;1.23;0.68;;;;;;;7.40;100.00;99162.81;6275989;28;20056;-77
2022/02/18 12:10:02;;;;;;;2.22;1.00;;;;;;;7.55;100.00;99149.59;6276018;28;20053;-77
2022/02/18 12:13:06;;;;;;;4.30;0.40;;;;;;;7.65;100.00;99135.91;6294992;28;20045;-77
2022/02/18 12:16:08;;;;;;;2.83;0.57;;;;;;;7.80;100.00;99130.47;6298361;28;20041;-77
2022/02/18 12:19:13;;;;;;;2.30;0.70;;;;;;;7.75;100.00;99116.03;6286008;28;20045;-77
2022/02/18 12:22:31;;;;;;;1.63;1.02;;;;;;;7.78;100.00;99100.97;6278396;28;20052;-76
2022/02/18 12:25:32;;;;;;;1.48;0.82;;;;;;;7.82;100.00;99104.22;6295716;28;20049;-76
2022/02/18 12:28:34;;;;;;;7.57;0.77;;;;;;;7.93;100.00;99087.78;6300418;28;20049;-77
2022/02/18 12:31:49;;;;;;;1.55;0.50;;;;;;;7.88;100.00;99068.00;6300059;28;20055;-77
2022/02/18 12:35:01;;;;;;;1.85;0.60;;;;;;;7.88;100.00;99067.19;6300344;28;20056;-76
2022/02/18 12:38:05;;;;;;;3.85;0.95;;;;;;;8.01;100.00;99041.84;6295360;28;20041;-78
2022/02/18 12:41:10;;;;;;;3.20;0.85;;;;;;;8.07;100.00;99032.72;6294901;28;20060;-77
2022/02/18 12:44:15;;;;;;;0.30;0.30;;;;;;;8.21;100.00;99032.59;6300238;28;20048;-80
2022/02/18 12:47:19;;;;;;;2.42;0.80;;;;;;;8.21;100.00;99026.50;6300147;28;20045;-80
2022/02/18 12:50:22;;;;;;;3.70;1.02;;;;;;;8.23;100.00;99008.94;6299383;28;20135;-78
2022/02/18 12:53:23;;;;;;;3.33;1.27;;;;;;;8.32;100.00;99010.91;6300061;28;20048;-77
2022/02/18 12:56:27;;;;;;;1.48;0.43;;;;;;;8.50;100.00;98993.06;6299827;28;20044;-77
2022/02/18 12:59:28;;;;;;;0.88;0.55;;;;;;;8.45;100.00;98979.44;6300125;28;20048;-77
2022/02/18 13:02:40;;;;;;;0.52;0.47;;;;;;;8.47;100.00;98977.56;6299158;28;20488;-77
2022/02/18 13:05:43;;;;;;;3.40;0.57;;;;;;;8.60;100.00;98960.84;6299637;28;20491;-77
2022/02/18 13:08:45;;;;;;;1.00;0.60;;;;;;;8.63;100.00;98950.16;6299578;28;20506;-77
2022/02/18 13:11:46;;;;;;;0.88;0.40;;;;;;;8.75;100.00;98922.19;6298915;28;20056;-78
2022/02/18 13:14:48;;;;;;;1.70;0.60;;;;;;;8.87;100.00;98917.84;6298748;28;20056;-78
2022/02/18 13:17:51;;;;;;;1.40;0.80;;;;;;;9.00;100.00;98896.78;6299615;28;20079;-78
2022/02/18 13:20:54;;;;;;;0.65;0.47;;;;;;;9.03;100.00;98886.88;6298577;28;20415;-78
2022/02/18 13:23:56;;;;;;;0.30;0.25;;;;;;;9.09;100.00;98893.47;6299237;28;20052;-77
2022/02/18 13:26:57;;;;;;;1.13;0.70;;;;;;;9.17;100.00;98879.75;6299078;28;20052;-77
2022/02/18 13:29:58;;;;;;;5.20;1.20;;;;;;;9.24;100.00;98873.09;6298244;28;20059;-77
2022/02/18 13:33:02;;;;;;;1.48;0.50;;;;;;;9.25;100.00;98859.84;6299304;28;20049;-78
2022/02/18 13:36:07;;;;;;;0.73;0.30;;;;;;;9.32;100.00;98847.13;6299088;28;20051;-79
2022/02/18 13:39:14;;;;;;;1.20;0.65;;;;;;;9.40;100.00;98821.09;6299218;28;20135;-78
2022/02/18 13:42:15;;;;;;;0.57;0.50;;;;;;;9.40;100.00;98798.38;6298166;28;20063;-80
2022/02/18 13:45:17;;;;;;;0.50;0.35;;;;;;;9.52;100.00;98782.59;6299121;28;20052;-78
2022/02/18 13:48:19;;;;;;;0.43;0.43;;;;;;;9.70;100.00;98769.78;6298907;28;20052;-78
2022/02/18 13:51:25;;;;;;;0.63;0.60;;;;;;;9.68;100.00;98762.06;6297752;28;20051;-78
2022/02/18 13:54:28;;;;;;;1.45;0.77;;;;;;;9.83;100.00;98742.44;6298735;28;20055;-78
2022/02/18 13:57:32;;;;;;;0.60;0.55;;;;;;;9.79;100.00;98746.25;6298399;28;20141;-79
2022/02/18 14:00:38;;;;;;;1.80;0.40;;;;;;;9.90;100.00;98738.34;6296644;28;20048;-77
2022/02/18 14:03:53;;;;;;;0.22;0.20;;;;;;;9.83;100.00;98742.44;6287336;28;20049;-77
2022/02/18 14:07:00;;;;;;;0.38;0.38;;;;;;;9.98;100.00;98716.69;6297990;28;20049;-78
2022/02/18 14:10:01;;;;;;;0.17;0.17;;;;;;;10.00;100.00;98699.06;6297282;28;20040;-78
2022/02/18 14:13:03;;;;;;;1.38;0.40;;;;;;;9.97;100.00;98694.06;6297889;28;20506;-79
2022/02/18 14:16:13;;;;;;;0.47;0.32;;;;;;;10.03;100.00;98675.16;6296290;28;20044;-78